Time;durP1;ratioP1;P1;durP2;ratioP2;P2;SDS_P1;SDS_P2;PMS_P1;PMS_P2;Temp;Humidity;BMP_temperature;BMP_pressure;BME280_temperature;BME280_humidity;BME280_pressure;Samples;Min_cycle;Max_cycle;Signal;HPM_P1;HPM_P2
2022/04/30 00:01:57;;;;;;;10.10;5.38;;;8.20;93.30;;;;;;5045677;28;20206;-63
2022/04/30 00:04:24;;;;;;;9.95;4.10;;;8.20;93.60;;;;;;5046404;28;20199;-62
2022/04/30 00:06:53;;;;;;;11.50;4.70;;;8.10;94.00;;;;;;5045285;28;20725;-61
2022/04/30 00:09:20;;;;;;;7.25;4.82;;;8.10;94.50;;;;;;5045801;28;20212;-61
2022/04/30 00:11:47;;;;;;;7.13;4.85;;;8.00;94.80;;;;;;5044950;28;20202;-63
2022/04/30 00:14:14;;;;;;;6.15;4.75;;;8.00;95.10;;;;;;5046344;28;20225;-61
2022/04/30 00:16:41;;;;;;;5.93;4.90;;;8.00;95.40;;;;;;5046346;28;20228;-62
2022/04/30 00:19:08;;;;;;;9.82;5.15;;;8.00;95.60;;;;;;5046251;28;20308;-63
2022/04/30 00:21:35;;;;;;;8.35;4.03;;;8.00;95.90;;;;;;5045668;28;20212;-62
2022/04/30 00:24:04;;;;;;;7.85;4.35;;;8.00;96.10;;;;;;5044459;28;20201;-62
2022/04/30 00:26:31;;;;;;;6.80;4.35;;;8.00;96.20;;;;;;5048195;28;20221;-62
2022/04/30 00:28:58;;;;;;;9.20;4.50;;;8.00;96.40;;;;;;5047880;28;20206;-63
2022/04/30 00:31:26;;;;;;;11.27;4.45;;;8.00;96.60;;;;;;5047690;28;20198;-62
2022/04/30 00:33:53;;;;;;;7.55;5.15;;;8.00;96.50;;;;;;5048308;28;20225;-62
2022/04/30 00:36:20;;;;;;;9.73;4.70;;;8.00;96.60;;;;;;5048867;28;20232;-62
2022/04/30 00:38:47;;;;;;;5.40;4.55;;;8.00;96.60;;;;;;5048448;28;20216;-62
2022/04/30 00:41:16;;;;;;;8.30;4.95;;;8.00;96.80;;;;;;5047515;28;20573;-62
2022/04/30 00:43:47;;;;;;;5.00;4.15;;;8.00;97.00;;;;;;5047900;28;20212;-62
2022/04/30 00:46:14;;;;;;;9.02;4.97;;;7.90;97.20;;;;;;5046899;28;20235;-62
2022/04/30 00:48:41;;;;;;;9.68;4.32;;;7.90;97.30;;;;;;5048154;28;20206;-62
2022/04/30 00:51:10;;;;;;;7.45;4.55;;;7.90;97.50;;;;;;5047176;28;20572;-62
2022/04/30 00:53:39;;;;;;;6.03;4.90;;;8.00;97.50;;;;;;5047215;28;20205;-64
2022/04/30 00:56:11;;;;;;;6.10;4.22;;;7.90;97.80;;;;;;5047935;28;20232;-62
2022/04/30 00:58:42;;;;;;;8.25;4.47;;;7.90;97.60;;;;;;5047785;28;20186;-62
2022/04/30 01:01:10;;;;;;;9.07;4.50;;;7.90;97.60;;;;;;5048428;28;20187;-62
2022/04/30 01:03:37;;;;;;;9.05;4.45;;;7.90;97.90;;;;;;5048795;28;20232;-62
2022/04/30 01:06:06;;;;;;;6.13;4.00;;;7.90;98.00;;;;;;5049934;28;20255;-63
2022/04/30 01:08:35;;;;;;;8.35;4.72;;;7.90;98.20;;;;;;5049680;28;20232;-61
2022/04/30 01:11:04;;;;;;;11.48;4.97;;;7.80;98.30;;;;;;5049177;28;20206;-61
2022/04/30 01:13:34;;;;;;;9.70;5.60;;;7.80;98.50;;;;;;5048999;28;20205;-62
2022/04/30 01:16:04;;;;;;;6.72;4.30;;;7.80;98.70;;;;;;5048589;28;20217;-62
2022/04/30 01:18:34;;;;;;;7.22;3.60;;;7.80;98.90;;;;;;5048316;28;20590;-62
2022/04/30 01:21:04;;;;;;;6.03;4.93;;;7.80;99.10;;;;;;5046704;28;20237;-62
2022/04/30 01:23:33;;;;;;;9.85;4.63;;;7.70;99.30;;;;;;5047891;28;20208;-63
2022/04/30 01:26:02;;;;;;;7.65;4.65;;;7.70;99.50;;;;;;5045559;28;20222;-62
2022/04/30 01:28:30;;;;;;;9.48;4.30;;;7.70;99.70;;;;;;5045943;28;20210;-62
2022/04/30 01:30:57;;;;;;;9.43;5.03;;;7.70;99.80;;;;;;5047956;28;20207;-62
2022/04/30 01:39:01;;;;;;;10.55;5.03;;;7.70;99.90;;;;;;5039250;28;20714;-62
2022/04/30 01:41:29;;;;;;;5.72;4.70;;;7.70;99.90;;;;;;5048942;28;20264;-63
2022/04/30 01:43:56;;;;;;;7.25;4.53;;;7.70;99.90;;;;;;5047616;28;20216;-62
2022/04/30 01:46:23;;;;;;;8.35;3.92;;;7.70;99.90;;;;;;5048293;28;20218;-61
2022/04/30 01:48:50;;;;;;;11.10;5.38;;;7.70;99.90;;;;;;5047338;28;20219;-63
2022/04/30 01:51:17;;;;;;;9.27;5.03;;;7.70;99.90;;;;;;5046783;28;20210;-63
2022/04/30 01:53:44;;;;;;;6.50;4.75;;;7.60;99.90;;;;;;5049093;28;20206;-61
2022/04/30 01:56:13;;;;;;;8.40;4.63;;;7.60;99.90;;;;;;5048840;28;20221;-61
2022/04/30 01:58:40;;;;;;;7.25;3.85;;;7.60;99.90;;;;;;5048552;28;20224;-61
2022/04/30 02:01:09;;;;;;;8.43;4.70;;;7.60;99.90;;;;;;5049325;28;20202;-62
2022/04/30 02:03:37;;;;;;;9.15;4.22;;;7.60;99.90;;;;;;5047615;28;20288;-63
2022/04/30 02:06:08;;;;;;;11.18;4.80;;;7.50;99.90;;;;;;5047153;28;20672;-62
2022/04/30 02:08:35;;;;;;;9.68;4.57;;;7.50;99.90;;;;;;5048258;28;20223;-61
2022/04/30 02:11:03;;;;;;;5.40;4.50;;;7.50;99.90;;;;;;5047965;28;20217;-62
2022/04/30 02:13:35;;;;;;;7.60;4.68;;;7.50;99.90;;;;;;5047144;28;20216;-63
2022/04/30 02:16:02;;;;;;;8.77;4.28;;;7.40;99.90;;;;;;5046913;28;20235;-62
2022/04/30 02:18:31;;;;;;;14.57;4.45;;;7.40;99.90;;;;;;5045050;28;20212;-61
2022/04/30 02:20:59;;;;;;;11.85;4.95;;;7.40;99.90;;;;;;5049965;28;20203;-61
2022/04/30 02:23:26;;;;;;;6.45;4.95;;;7.30;99.90;;;;;;5049122;28;20277;-63
2022/04/30 02:25:54;;;;;;;9.43;4.38;;;7.30;99.90;;;;;;5045234;28;20256;-63
2022/04/30 02:28:21;;;;;;;6.60;4.88;;;7.30;99.90;;;;;;5044795;28;20204;-60
2022/04/30 02:30:49;;;;;;;10.63;4.88;;;7.30;99.90;;;;;;5043694;28;20232;-60
2022/04/30 02:33:17;;;;;;;14.73;7.20;;;7.30;99.90;;;;;;5044983;28;20280;-60
2022/04/30 02:35:45;;;;;;;9.05;4.45;;;7.30;99.90;;;;;;5044752;28;20292;-61
2022/04/30 02:38:12;;;;;;;9.60;5.05;;;7.30;99.90;;;;;;5044109;28;20205;-60
2022/04/30 02:40:41;;;;;;;6.60;4.80;;;7.30;99.90;;;;;;5043710;28;20201;-60
2022/04/30 02:43:10;;;;;;;6.22;3.97;;;7.20;99.90;;;;;;5043816;28;20207;-61
2022/04/30 02:45:39;;;;;;;13.38;5.35;;;7.20;99.90;;;;;;5045938;28;20238;-61
2022/04/30 02:48:09;;;;;;;5.97;4.60;;;7.20;99.90;;;;;;5040183;28;20202;-61
2022/04/30 02:50:37;;;;;;;6.57;4.13;;;7.20;99.90;;;;;;5040997;28;20219;-61
2022/04/30 02:53:05;;;;;;;11.30;5.30;;;7.30;99.90;;;;;;5040719;28;20308;-61
2022/04/30 02:55:32;;;;;;;12.48;5.25;;;7.20;99.90;;;;;;5041051;28;20254;-61
2022/04/30 03:00:45;;;;;;;7.57;4.68;;;7.20;99.90;;;;;;5041977;28;20215;-62
2022/04/30 03:03:16;;;;;;;8.13;5.35;;;7.20;99.90;;;;;;5042808;28;20210;-61
2022/04/30 03:05:44;;;;;;;9.80;3.85;;;7.10;99.90;;;;;;5063234;22;20234;-62
2022/04/30 03:08:13;;;;;;;7.05;4.03;;;7.10;99.90;;;;;;5034319;28;20209;-62
2022/04/30 03:10:41;;;;;;;7.05;4.50;;;7.10;99.90;;;;;;5034291;28;20226;-62
2022/04/30 03:13:08;;;;;;;8.63;5.05;;;7.10;99.90;;;;;;5034750;28;20551;-62
2022/04/30 03:15:36;;;;;;;7.55;5.05;;;7.10;99.90;;;;;;5033786;28;20237;-62
2022/04/30 03:23:41;;;;;;;7.20;5.20;;;7.10;99.90;;;;;;5028022;28;20279;-62
2022/04/30 03:26:09;;;;;;;7.47;4.53;;;7.20;99.90;;;;;;5033441;28;20726;-62
2022/04/30 03:28:37;;;;;;;6.68;4.28;;;7.20;99.90;;;;;;5033515;28;20671;-63
2022/04/30 03:31:05;;;;;;;6.25;4.43;;;7.20;99.90;;;;;;5033472;28;20678;-62
2022/04/30 03:33:32;;;;;;;8.63;5.47;;;7.20;99.90;;;;;;5033859;28;20205;-63
2022/04/30 03:36:02;;;;;;;9.07;4.20;;;7.20;99.90;;;;;;5033711;28;20225;-62
2022/04/30 03:38:29;;;;;;;6.95;4.18;;;7.20;99.90;;;;;;5033922;28;20208;-62
2022/04/30 03:40:57;;;;;;;8.55;4.20;;;7.20;99.90;;;;;;5047927;28;20210;-62
2022/04/30 03:43:24;;;;;;;13.80;4.40;;;7.10;99.90;;;;;;5050401;28;20215;-63
2022/04/30 03:45:51;;;;;;;12.20;4.75;;;7.10;99.90;;;;;;5050342;28;20218;-63
2022/04/30 03:48:18;;;;;;;9.43;4.15;;;7.10;99.90;;;;;;5044046;28;20211;-62
2022/04/30 03:50:45;;;;;;;7.88;4.68;;;7.10;99.90;;;;;;5044022;28;20216;-63
2022/04/30 03:53:14;;;;;;;5.90;4.70;;;7.20;99.90;;;;;;5043500;28;20199;-62
2022/04/30 03:55:41;;;;;;;10.32;5.03;;;7.20;99.90;;;;;;5040672;28;20700;-63
2022/04/30 03:58:08;;;;;;;10.73;4.75;;;7.20;99.90;;;;;;5039846;28;20205;-62
2022/04/30 04:00:35;;;;;;;6.55;4.50;;;7.20;99.90;;;;;;5039158;28;20289;-61
2022/04/30 04:03:02;;;;;;;8.63;4.95;;;7.20;99.90;;;;;;5034751;28;20209;-62
2022/04/30 04:05:29;;;;;;;6.25;4.80;;;7.20;99.90;;;;;;5033845;28;20232;-61
2022/04/30 04:09:43;;;;;;;11.63;5.13;;;7.20;99.90;;;;;;5091960;27;20546;-62
2022/04/30 04:12:11;;;;;;;12.43;5.57;;;7.20;99.90;;;;;;5091008;28;20602;-63
2022/04/30 04:17:41;;;;;;;10.15;4.55;;;7.20;99.90;;;;;;5092362;28;20644;-63
2022/04/30 04:20:09;;;;;;;9.40;5.60;;;7.20;99.90;;;;;;5090932;28;20676;-62
2022/04/30 04:22:37;;;;;;;6.90;5.05;;;7.20;99.90;;;;;;5090885;28;20196;-63
2022/04/30 04:27:55;;;;;;;11.40;5.60;;;7.10;99.90;;;;;;5090931;28;20227;-63
2022/04/30 04:30:22;;;;;;;9.25;5.30;;;7.10;99.90;;;;;;5090585;28;20667;-61
2022/04/30 04:32:49;;;;;;;9.30;4.80;;;7.10;99.90;;;;;;5091261;28;20231;-62
2022/04/30 04:35:17;;;;;;;9.90;4.63;;;7.20;99.90;;;;;;5091228;28;20210;-62
2022/04/30 04:37:44;;;;;;;11.98;5.35;;;7.20;99.90;;;;;;5090608;28;20309;-63
2022/04/30 04:40:15;;;;;;;14.63;5.65;;;7.20;99.90;;;;;;5091130;28;20215;-61
2022/04/30 04:42:43;;;;;;;9.30;6.00;;;7.20;99.90;;;;;;5090826;28;20228;-61
2022/04/30 04:45:12;;;;;;;9.20;5.63;;;7.20;99.90;;;;;;5090549;28;20203;-62
2022/04/30 04:47:40;;;;;;;9.50;5.10;;;7.20;99.90;;;;;;5090416;28;20204;-62
2022/04/30 04:50:10;;;;;;;8.50;5.10;;;7.20;99.90;;;;;;5089841;28;20700;-62
2022/04/30 04:52:37;;;;;;;7.30;5.70;;;7.20;99.90;;;;;;5089548;28;20560;-62
2022/04/30 04:55:05;;;;;;;7.38;5.97;;;7.20;99.90;;;;;;5089737;28;20287;-61
2022/04/30 04:57:34;;;;;;;7.15;5.05;;;7.20;99.90;;;;;;5089646;28;20201;-63
2022/04/30 05:00:02;;;;;;;7.45;5.15;;;7.30;99.90;;;;;;5089353;28;20211;-63
2022/04/30 05:02:29;;;;;;;11.95;5.30;;;7.30;99.90;;;;;;5089518;28;20212;-63
2022/04/30 05:04:56;;;;;;;11.95;5.55;;;7.30;99.90;;;;;;5089251;28;20733;-62
2022/04/30 05:07:24;;;;;;;7.72;5.20;;;7.30;99.90;;;;;;5089092;28;20220;-63
2022/04/30 05:09:51;;;;;;;7.10;5.30;;;7.30;99.90;;;;;;5089895;28;20617;-62
2022/04/30 05:12:18;;;;;;;8.70;5.50;;;7.30;99.90;;;;;;5089645;28;20216;-63
2022/04/30 05:14:48;;;;;;;6.55;5.85;;;7.30;99.90;;;;;;5089168;28;20684;-62
2022/04/30 05:17:16;;;;;;;8.45;5.80;;;7.30;99.90;;;;;;5089312;28;20263;-63
2022/04/30 05:19:43;;;;;;;7.53;4.90;;;7.30;99.90;;;;;;5083165;28;20366;-61
2022/04/30 05:22:11;;;;;;;7.82;5.25;;;7.40;99.90;;;;;;5075312;28;20688;-63
2022/04/30 05:24:38;;;;;;;8.80;5.50;;;7.40;99.90;;;;;;5075477;28;20204;-61
2022/04/30 05:27:08;;;;;;;7.68;5.40;;;7.50;99.90;;;;;;5075466;28;20224;-62
2022/04/30 05:29:35;;;;;;;7.43;4.93;;;7.50;99.90;;;;;;5075670;28;20229;-62
2022/04/30 05:32:04;;;;;;;9.65;6.03;;;7.60;99.90;;;;;;5075668;28;20208;-63
2022/04/30 05:34:32;;;;;;;9.93;5.38;;;7.70;99.90;;;;;;5075966;28;20201;-63
2022/04/30 05:36:59;;;;;;;7.97;5.50;;;7.70;99.90;;;;;;5075652;28;20738;-62
2022/04/30 05:39:27;;;;;;;8.07;5.03;;;7.70;99.90;;;;;;5075730;28;20204;-61
2022/04/30 05:41:54;;;;;;;10.07;5.45;;;7.70;99.90;;;;;;5075511;28;20657;-62
2022/04/30 05:44:21;;;;;;;10.45;5.50;;;7.80;99.90;;;;;;5075520;28;20204;-60
2022/04/30 05:46:48;;;;;;;11.68;5.78;;;7.70;99.90;;;;;;5075604;28;20216;-62
2022/04/30 05:49:16;;;;;;;12.45;6.43;;;7.70;99.90;;;;;;5075127;28;20221;-63
2022/04/30 05:51:43;;;;;;;9.07;6.38;;;7.70;99.90;;;;;;5075345;28;20205;-61
2022/04/30 05:54:11;;;;;;;11.75;5.55;;;7.60;99.90;;;;;;5075515;28;20201;-62
2022/04/30 05:56:38;;;;;;;13.48;5.63;;;7.60;99.90;;;;;;5075285;28;20236;-62
2022/04/30 05:59:05;;;;;;;11.60;5.78;;;7.50;99.90;;;;;;5075001;28;20200;-62
2022/04/30 06:01:32;;;;;;;13.30;6.85;;;7.50;99.90;;;;;;5075254;28;20291;-62
2022/04/30 06:03:59;;;;;;;9.63;5.90;;;7.50;99.90;;;;;;5074846;28;20208;-62
2022/04/30 06:06:27;;;;;;;9.30;5.93;;;7.60;99.90;;;;;;5074718;28;20693;-63
2022/04/30 06:08:56;;;;;;;12.40;5.78;;;7.60;99.90;;;;;;5074887;28;20233;-62
2022/04/30 06:11:23;;;;;;;6.65;5.30;;;7.60;99.90;;;;;;5075080;28;20201;-63
2022/04/30 06:13:50;;;;;;;8.77;5.78;;;7.60;99.90;;;;;;5074733;28;20201;-62
2022/04/30 06:16:17;;;;;;;10.52;5.70;;;7.50;99.90;;;;;;5074583;28;20216;-63
2022/04/30 06:18:44;;;;;;;11.10;4.97;;;7.50;99.90;;;;;;5074573;28;20201;-62
2022/04/30 06:21:11;;;;;;;8.88;6.40;;;7.50;99.90;;;;;;5074644;28;20203;-63
2022/04/30 06:23:40;;;;;;;10.85;6.60;;;7.60;99.90;;;;;;5074913;28;20196;-63
2022/04/30 06:26:07;;;;;;;6.43;5.50;;;7.70;99.90;;;;;;5074698;28;20227;-63
2022/04/30 06:28:34;;;;;;;7.90;5.65;;;7.80;99.90;;;;;;5075344;28;20213;-62
2022/04/30 06:31:01;;;;;;;6.25;5.18;;;7.80;99.90;;;;;;5074850;28;20296;-63
2022/04/30 06:33:29;;;;;;;14.93;6.35;;;7.80;99.90;;;;;;5074978;28;20700;-62
2022/04/30 06:35:56;;;;;;;11.15;5.53;;;7.80;99.90;;;;;;5075218;28;20290;-62
2022/04/30 06:38:23;;;;;;;12.73;5.85;;;7.80;99.90;;;;;;5075767;28;20228;-62
2022/04/30 06:40:52;;;;;;;8.38;5.78;;;7.90;99.90;;;;;;5074628;28;20234;-63
2022/04/30 06:43:19;;;;;;;10.40;6.40;;;8.00;99.90;;;;;;5074697;28;20197;-62
2022/04/30 06:45:46;;;;;;;7.47;5.03;;;8.10;99.90;;;;;;5074547;28;20217;-63
2022/04/30 06:48:13;;;;;;;14.35;6.72;;;8.20;99.90;;;;;;5074660;28;20232;-63
2022/04/30 06:50:43;;;;;;;6.80;5.57;;;8.30;99.90;;;;;;5074669;28;20592;-63
2022/04/30 06:58:50;;;;;;;10.55;5.70;;;8.50;99.90;;;;;;5084967;28;20706;-65
2022/04/30 07:01:30;;;;;;;5.90;4.72;;;8.40;99.90;;;;;;5075917;28;20185;-63
2022/04/30 07:04:04;;;;;;;12.75;5.18;;;8.30;99.90;;;;;;5080627;28;20215;-66
2022/04/30 07:06:31;;;;;;;10.88;5.25;;;8.40;99.90;;;;;;5092231;28;20225;-65
2022/04/30 07:08:58;;;;;;;12.05;5.60;;;8.40;99.90;;;;;;5090749;28;20255;-64
2022/04/30 07:11:27;;;;;;;10.00;4.63;;;8.40;99.90;;;;;;5091071;28;20331;-66
2022/04/30 07:13:54;;;;;;;7.82;5.03;;;8.30;99.90;;;;;;5089310;28;20211;-59
2022/04/30 07:16:21;;;;;;;9.05;4.88;;;8.30;99.90;;;;;;5089309;28;20289;-63
2022/04/30 07:18:48;;;;;;;9.20;5.95;;;8.30;99.90;;;;;;5088449;28;20271;-62
2022/04/30 07:21:16;;;;;;;8.32;6.40;;;8.20;99.90;;;;;;5088260;28;20201;-63
2022/04/30 07:23:43;;;;;;;9.63;5.97;;;8.10;99.90;;;;;;5091051;28;20208;-64
2022/04/30 07:26:11;;;;;;;8.20;6.15;;;8.20;99.90;;;;;;5091097;28;20221;-64
2022/04/30 07:28:39;;;;;;;9.43;6.65;;;8.20;99.90;;;;;;5085470;28;20217;-62
2022/04/30 07:31:08;;;;;;;14.15;6.38;;;8.20;99.90;;;;;;5083848;28;20531;-64
2022/04/30 07:33:35;;;;;;;15.52;7.00;;;8.20;99.90;;;;;;5092313;28;20287;-63
2022/04/30 07:36:03;;;;;;;12.07;6.80;;;8.20;99.90;;;;;;5090105;28;20273;-63
2022/04/30 07:38:31;;;;;;;13.23;6.05;;;8.20;99.90;;;;;;5091039;28;20215;-63
2022/04/30 07:40:58;;;;;;;11.45;7.18;;;8.10;99.90;;;;;;5090250;28;20201;-65
2022/04/30 07:43:25;;;;;;;15.10;7.88;;;8.00;99.90;;;;;;5089506;28;20227;-64
2022/04/30 07:45:53;;;;;;;12.07;6.80;;;7.90;99.90;;;;;;5087797;28;20217;-65
2022/04/30 07:48:20;;;;;;;16.17;6.97;;;7.80;99.90;;;;;;5086439;28;20216;-63
2022/04/30 07:50:48;;;;;;;11.40;7.63;;;7.70;99.90;;;;;;5086365;28;20208;-66
2022/04/30 07:53:16;;;;;;;11.32;7.43;;;7.60;99.90;;;;;;5084803;28;20201;-65
2022/04/30 07:55:43;;;;;;;11.40;7.90;;;7.60;99.90;;;;;;5084895;28;20637;-62
2022/04/30 07:58:11;;;;;;;12.95;8.05;;;7.50;99.90;;;;;;5084607;28;20201;-61
2022/04/30 08:00:38;;;;;;;17.13;8.25;;;7.50;99.90;;;;;;5089932;28;20197;-66
2022/04/30 08:03:07;;;;;;;13.40;8.50;;;7.50;99.90;;;;;;5086785;28;20197;-66
2022/04/30 08:05:34;;;;;;;12.02;8.30;;;7.40;99.90;;;;;;5082075;28;20441;-64
2022/04/30 08:08:02;;;;;;;11.48;8.55;;;7.40;99.90;;;;;;5078222;28;20243;-65
2022/04/30 08:10:29;;;;;;;12.48;8.25;;;7.50;99.90;;;;;;5075825;28;20240;-62
2022/04/30 08:12:57;;;;;;;14.20;9.68;;;7.50;99.90;;;;;;5073997;28;20199;-61
2022/04/30 08:15:25;;;;;;;18.13;9.35;;;7.60;99.90;;;;;;5074370;28;20232;-63
2022/04/30 08:17:52;;;;;;;16.42;9.80;;;7.60;99.90;;;;;;5073625;28;20204;-62
2022/04/30 08:20:21;;;;;;;12.18;8.25;;;7.60;99.90;;;;;;5073698;28;20208;-62
2022/04/30 08:22:49;;;;;;;13.98;8.82;;;7.70;99.90;;;;;;5073043;28;20237;-63
2022/04/30 08:25:16;;;;;;;15.43;9.25;;;7.90;99.90;;;;;;5073520;28;20197;-65
2022/04/30 08:27:43;;;;;;;14.82;8.43;;;8.00;99.90;;;;;;5074941;28;20228;-62
2022/04/30 08:30:11;;;;;;;13.27;9.38;;;8.20;99.90;;;;;;5073761;28;20224;-63
2022/04/30 08:32:38;;;;;;;12.95;8.63;;;8.40;99.90;;;;;;5073081;28;20208;-64
2022/04/30 08:35:06;;;;;;;15.10;8.25;;;8.60;99.90;;;;;;5072487;28;20208;-63
2022/04/30 08:37:35;;;;;;;16.45;8.10;;;8.80;99.90;;;;;;5073559;28;20665;-65
2022/04/30 08:40:02;;;;;;;20.98;8.82;;;9.10;99.90;;;;;;5076823;28;20223;-62
2022/04/30 08:42:32;;;;;;;11.27;7.65;;;9.20;99.90;;;;;;5079649;28;20204;-63
2022/04/30 08:44:59;;;;;;;15.45;7.93;;;9.30;99.90;;;;;;5078573;28;20232;-63
2022/04/30 08:47:27;;;;;;;10.52;7.25;;;9.50;99.90;;;;;;5079552;28;20254;-61
2022/04/30 08:49:56;;;;;;;10.17;7.50;;;9.70;99.90;;;;;;5074923;28;20535;-63
2022/04/30 08:52:24;;;;;;;12.18;7.68;;;9.90;99.90;;;;;;5073923;28;20451;-62
2022/04/30 08:54:52;;;;;;;9.80;6.73;;;10.10;99.90;;;;;;5075632;28;20238;-63
2022/04/30 08:57:20;;;;;;;11.33;7.27;;;10.20;99.90;;;;;;5077925;28;20469;-63
2022/04/30 08:59:48;;;;;;;8.80;7.23;;;10.30;99.90;;;;;;5077436;28;20493;-67
2022/04/30 09:02:15;;;;;;;15.43;7.20;;;10.40;99.90;;;;;;5077485;28;20922;-63
2022/04/30 09:04:45;;;;;;;9.50;7.33;;;10.40;99.90;;;;;;5077243;28;20451;-63
2022/04/30 09:07:16;;;;;;;9.80;6.70;;;10.50;99.90;;;;;;5082580;22;20498;-62
2022/04/30 09:09:44;;;;;;;10.30;7.20;;;10.60;99.90;;;;;;5035998;28;20491;-63
2022/04/30 09:12:14;;;;;;;9.97;6.70;;;10.70;99.90;;;;;;5035817;28;20819;-62
2022/04/30 09:14:42;;;;;;;6.87;5.47;;;10.80;99.90;;;;;;5036117;28;20585;-60
2022/04/30 09:17:11;;;;;;;9.90;5.50;;;11.00;99.90;;;;;;5036080;28;20464;-64
2022/04/30 09:19:52;;;;;;;7.70;6.33;;;11.10;99.90;;;;;;5036643;28;20483;-62
2022/04/30 09:22:29;;;;;;;8.00;5.77;;;11.20;99.90;;;;;;5035901;28;20913;-63
2022/04/30 09:24:56;;;;;;;10.10;6.03;;;11.30;99.80;;;;;;5036117;28;20605;-61
2022/04/30 09:27:25;;;;;;;12.17;5.97;;;11.40;97.90;;;;;;5035441;28;20991;-61
2022/04/30 09:29:52;;;;;;;9.90;5.73;;;11.40;96.50;;;;;;5035852;28;20546;-60
2022/04/30 09:32:21;;;;;;;12.23;7.10;;;11.30;96.00;;;;;;5036083;28;20535;-62
2022/04/30 09:37:45;;;;;;;8.13;6.70;;;11.20;95.00;;;;;;5035837;28;20444;-62
2022/04/30 09:40:21;;;;;;;10.83;5.87;;;11.20;94.30;;;;;;5036159;28;20425;-62
2022/04/30 09:42:50;;;;;;;7.93;5.50;;;11.20;93.50;;;;;;5035380;28;20995;-61
2022/04/30 09:45:29;;;;;;;9.13;6.07;;;11.30;93.00;;;;;;5035464;28;20441;-60
2022/04/30 09:47:56;;;;;;;7.83;5.80;;;11.40;92.30;;;;;;5035884;28;20437;-61
2022/04/30 09:55:56;;;;;;;6.63;5.20;;;11.60;90.70;;;;;;5036292;28;20443;-60
2022/04/30 09:58:26;;;;;;;6.07;4.70;;;11.70;90.50;;;;;;5036737;28;20452;-60
2022/04/30 10:00:58;;;;;;;7.97;4.80;;;11.70;89.80;;;;;;5035526;28;20451;-60
2022/04/30 10:03:27;;;;;;;5.93;4.97;;;11.70;89.50;;;;;;5035678;28;20449;-61
2022/04/30 10:06:00;;;;;;;7.30;4.87;;;11.70;88.10;;;;;;5035407;28;20461;-62
2022/04/30 10:08:33;;;;;;;5.97;4.43;;;11.70;86.30;;;;;;5037834;28;20437;-60
2022/04/30 10:11:26;;;;;;;4.87;4.10;;;11.60;85.10;;;;;;5035287;28;20480;-63
2022/04/30 10:14:06;;;;;;;6.07;4.20;;;11.60;85.10;;;;;;5035265;28;20956;-64
2022/04/30 10:16:34;;;;;;;7.03;4.90;;;11.60;84.40;;;;;;5035271;28;20461;-62
2022/04/30 10:19:10;;;;;;;5.43;3.90;;;11.50;83.60;;;;;;5035384;28;20566;-64
2022/04/30 10:21:39;;;;;;;9.40;4.70;;;11.50;83.10;;;;;;5035014;28;20527;-64
2022/04/30 10:24:09;;;;;;;5.40;4.13;;;11.50;83.10;;;;;;5035056;28;20523;-63
2022/04/30 10:26:37;;;;;;;5.23;4.40;;;11.60;82.30;;;;;;5034408;28;20469;-63
2022/04/30 10:29:12;;;;;;;5.20;3.70;;;11.60;81.50;;;;;;5034589;28;20502;-63
2022/04/30 10:31:44;;;;;;;5.40;4.53;;;11.80;80.40;;;;;;5034165;28;20497;-64
2022/04/30 10:34:12;;;;;;;8.43;4.83;;;11.80;79.30;;;;;;5034264;28;20452;-62
2022/04/30 10:36:40;;;;;;;5.63;4.33;;;11.90;78.50;;;;;;5036061;28;20464;-63
2022/04/30 10:42:05;;;;;;;4.37;3.97;;;11.80;76.20;;;;;;5036422;28;20409;-59
2022/04/30 10:44:34;;;;;;;6.70;5.00;;;11.70;75.50;;;;;;5035767;28;20792;-60
2022/04/30 10:47:12;;;;;;;8.87;5.70;;;11.70;75.70;;;;;;5034932;28;20453;-61
2022/04/30 10:49:40;;;;;;;7.40;5.67;;;11.60;76.10;;;;;;5035561;28;20465;-60
2022/04/30 10:52:09;;;;;;;6.27;5.33;;;11.70;76.70;;;;;;5038977;28;20532;-62
2022/04/30 10:54:40;;;;;;;8.77;6.27;;;11.70;76.30;;;;;;5034462;28;20452;-62
2022/04/30 10:57:09;;;;;;;7.53;5.40;;;11.70;76.60;;;;;;5034935;28;20472;-61
2022/04/30 10:59:38;;;;;;;5.53;4.90;;;11.70;77.00;;;;;;5038041;28;20448;-63
2022/04/30 11:02:06;;;;;;;9.70;5.37;;;11.80;77.40;;;;;;5037500;28;20449;-62
2022/04/30 11:04:33;;;;;;;9.13;5.70;;;11.90;76.80;;;;;;5036242;28;20950;-63
2022/04/30 11:07:02;;;;;;;7.47;5.10;;;11.90;76.80;;;;;;5036173;28;20495;-64
2022/04/30 11:09:29;;;;;;;8.00;5.23;;;12.00;76.60;;;;;;5035936;28;20452;-62
2022/04/30 11:11:57;;;;;;;6.23;5.20;;;12.00;75.90;;;;;;5034601;28;20448;-62
2022/04/30 11:14:25;;;;;;;5.70;4.60;;;12.00;76.20;;;;;;5034912;28;20508;-61
2022/04/30 11:16:54;;;;;;;6.70;5.37;;;12.00;75.90;;;;;;5033598;28;20835;-63
2022/04/30 11:19:23;;;;;;;8.23;5.50;;;12.20;75.60;;;;;;5033945;28;20448;-61
2022/04/30 11:21:53;;;;;;;5.27;4.77;;;12.30;75.00;;;;;;5034481;28;20471;-62
2022/04/30 11:24:25;;;;;;;7.43;5.20;;;12.40;73.50;;;;;;5034316;28;20455;-60
2022/04/30 11:26:55;;;;;;;8.20;5.93;;;12.50;73.50;;;;;;5033800;28;20497;-61
2022/04/30 11:29:23;;;;;;;7.67;5.07;;;12.50;73.40;;;;;;5036640;28;20512;-61
2022/04/30 11:31:53;;;;;;;7.03;5.33;;;12.50;73.00;;;;;;5034350;28;20480;-64
2022/04/30 11:34:21;;;;;;;6.60;5.07;;;12.60;72.90;;;;;;5034075;28;20438;-61
2022/04/30 11:36:49;;;;;;;9.30;4.90;;;12.70;72.80;;;;;;5033652;28;20470;-61
2022/04/30 11:39:18;;;;;;;7.57;4.43;;;12.90;71.70;;;;;;5034650;28;20447;-61
2022/04/30 11:41:48;;;;;;;6.93;4.83;;;13.10;70.50;;;;;;5033592;28;20451;-61
2022/04/30 11:44:16;;;;;;;9.93;4.73;;;13.30;69.20;;;;;;5036371;28;20482;-63
2022/04/30 11:46:46;;;;;;;8.07;4.80;;;13.50;67.10;;;;;;5033814;28;20552;-63
2022/04/30 11:49:16;;;;;;;6.37;5.53;;;13.60;66.60;;;;;;5033856;28;20843;-63
2022/04/30 11:51:44;;;;;;;6.80;4.10;;;13.70;65.70;;;;;;5033415;28;20504;-62
2022/04/30 11:54:12;;;;;;;6.10;4.70;;;13.90;64.70;;;;;;5033517;28;20455;-61
2022/04/30 11:56:43;;;;;;;6.20;5.00;;;13.90;63.90;;;;;;5033767;28;20473;-61
2022/04/30 11:59:10;;;;;;;7.87;4.73;;;13.80;63.40;;;;;;5033468;28;20431;-62
2022/04/30 12:01:39;;;;;;;7.60;5.00;;;13.70;63.70;;;;;;5033130;28;20457;-61
2022/04/30 12:04:08;;;;;;;5.40;4.83;;;13.70;64.20;;;;;;5033228;28;20452;-63
2022/04/30 12:06:38;;;;;;;10.80;4.33;;;13.70;63.70;;;;;;5032961;28;20521;-62
2022/04/30 12:09:14;;;;;;;6.10;5.23;;;13.60;63.80;;;;;;5033469;28;20452;-64
2022/04/30 12:11:43;;;;;;;5.27;3.70;;;13.80;63.80;;;;;;5032745;28;20509;-62
2022/04/30 12:14:11;;;;;;;4.30;3.83;;;13.90;62.40;;;;;;5033415;28;20538;-63
2022/04/30 12:16:39;;;;;;;6.70;4.27;;;14.10;60.90;;;;;;5033171;28;20476;-62
2022/04/30 12:24:49;;;;;;;5.97;3.90;;;14.50;58.60;;;;;;5032735;28;20413;-61
2022/04/30 12:27:23;;;;;;;8.10;4.20;;;14.70;57.70;;;;;;5032568;28;20912;-62
2022/04/30 12:30:01;;;;;;;11.33;4.53;;;14.90;57.30;;;;;;5034058;28;20489;-62
2022/04/30 12:32:28;;;;;;;5.90;4.43;;;15.00;56.80;;;;;;5036838;28;20480;-62
2022/04/30 12:34:57;;;;;;;9.47;4.43;;;15.00;56.40;;;;;;5039215;28;20585;-61
2022/04/30 12:37:32;;;;;;;5.10;4.60;;;15.00;56.40;;;;;;5036841;28;20833;-61
2022/04/30 12:40:00;;;;;;;4.40;3.43;;;15.00;55.70;;;;;;5037066;28;20445;-61
2022/04/30 12:42:27;;;;;;;4.63;3.30;;;14.90;55.30;;;;;;5037060;28;20813;-61
2022/04/30 12:44:54;;;;;;;3.93;3.30;;;14.90;55.20;;;;;;5036874;28;20472;-62
2022/04/30 12:47:21;;;;;;;7.60;3.57;;;14.90;54.80;;;;;;5036331;28;20551;-61
2022/04/30 12:49:49;;;;;;;4.00;3.40;;;15.00;54.30;;;;;;5037055;28;20456;-62
2022/04/30 12:52:16;;;;;;;5.17;3.83;;;15.00;53.90;;;;;;5036695;28;20975;-62
2022/04/30 12:54:45;;;;;;;5.53;4.00;;;15.00;53.70;;;;;;5036248;28;20930;-63
2022/04/30 12:57:12;;;;;;;6.40;3.90;;;15.00;53.60;;;;;;5036265;28;20469;-60
2022/04/30 12:59:39;;;;;;;7.23;4.23;;;14.90;53.60;;;;;;5036093;28;20445;-62
2022/04/30 13:02:08;;;;;;;3.97;3.60;;;14.80;53.90;;;;;;5036490;28;20476;-60
2022/04/30 13:04:36;;;;;;;7.43;4.20;;;14.70;53.80;;;;;;5036527;28;20451;-61
2022/04/30 13:07:06;;;;;;;6.03;4.57;;;14.60;54.10;;;;;;5037176;28;20579;-61
2022/04/30 13:15:03;;;;;;;4.57;3.63;;;14.40;54.70;;;;;;5037024;28;20415;-63
2022/04/30 13:17:30;;;;;;;7.97;4.03;;;14.50;54.60;;;;;;5036461;28;20508;-64
2022/04/30 13:19:57;;;;;;;6.87;4.40;;;14.80;54.50;;;;;;5036905;28;20448;-62
2022/04/30 13:22:25;;;;;;;5.67;4.97;;;15.00;54.20;;;;;;5036829;28;20552;-64
2022/04/30 13:24:52;;;;;;;6.63;4.40;;;15.20;53.80;;;;;;5035857;28;20445;-63
2022/04/30 13:27:20;;;;;;;4.77;4.20;;;15.30;53.60;;;;;;5035823;28;20543;-63
2022/04/30 13:29:47;;;;;;;6.87;4.70;;;15.40;53.40;;;;;;5035791;28;20451;-65
2022/04/30 13:32:14;;;;;;;4.83;4.33;;;15.50;53.30;;;;;;5035550;28;20490;-62
2022/04/30 13:34:42;;;;;;;6.77;4.30;;;15.50;52.80;;;;;;5036074;28;20453;-63
2022/04/30 13:37:09;;;;;;;7.70;4.67;;;15.20;52.90;;;;;;5036313;28;20469;-63
2022/04/30 13:39:36;;;;;;;6.03;4.20;;;15.00;53.10;;;;;;5035790;28;20457;-63
2022/04/30 13:42:04;;;;;;;4.40;4.00;;;14.90;53.40;;;;;;5036174;28;20451;-64
2022/04/30 13:44:32;;;;;;;5.77;4.30;;;14.80;53.60;;;;;;5035285;28;20453;-63
2022/04/30 13:47:00;;;;;;;4.20;3.53;;;14.80;53.70;;;;;;5034953;28;20508;-64